sensor_id;sensor_type;location;lat;lon;timestamp;P1;durP1;ratioP1;P2;durP2;ratioP2
25191;SDS011;13143;50.924;5.320;2024-03-29T00:00:56;6.50;;;1.27;;
25191;SDS011;13143;50.924;5.320;2024-03-29T00:03:22;4.50;;;0.95;;
25191;SDS011;13143;50.924;5.320;2024-03-29T00:05:48;8.80;;;1.17;;
25191;SDS011;13143;50.924;5.320;2024-03-29T00:08:14;7.65;;;1.60;;
25191;SDS011;13143;50.924;5.320;2024-03-29T00:10:40;6.47;;;1.23;;
25191;SDS011;13143;50.924;5.320;2024-03-29T00:13:06;5.28;;;1.05;;
25191;SDS011;13143;50.924;5.320;2024-03-29T00:15:32;5.97;;;1.25;;
25191;SDS011;13143;50.924;5.320;2024-03-29T00:17:58;5.25;;;1.08;;
25191;SDS011;13143;50.924;5.320;2024-03-29T00:20:24;6.18;;;1.20;;
25191;SDS011;13143;50.924;5.320;2024-03-29T00:22:50;4.90;;;1.25;;
25191;SDS011;13143;50.924;5.320;2024-03-29T00:25:16;4.78;;;1.05;;
25191;SDS011;13143;50.924;5.320;2024-03-29T00:27:42;4.43;;;1.00;;
25191;SDS011;13143;50.924;5.320;2024-03-29T00:30:11;5.55;;;1.05;;
25191;SDS011;13143;50.924;5.320;2024-03-29T00:32:37;4.93;;;1.02;;
25191;SDS011;13143;50.924;5.320;2024-03-29T00:35:03;6.68;;;1.20;;
25191;SDS011;13143;50.924;5.320;2024-03-29T00:37:30;2.55;;;1.30;;
25191;SDS011;13143;50.924;5.320;2024-03-29T00:39:56;3.70;;;1.00;;
25191;SDS011;13143;50.924;5.320;2024-03-29T00:42:21;5.25;;;1.00;;
25191;SDS011;13143;50.924;5.320;2024-03-29T00:44:49;5.95;;;1.35;;
25191;SDS011;13143;50.924;5.320;2024-03-29T00:47:16;7.75;;;1.50;;
25191;SDS011;13143;50.924;5.320;2024-03-29T00:49:42;4.90;;;1.13;;
25191;SDS011;13143;50.924;5.320;2024-03-29T00:52:08;5.45;;;1.02;;
25191;SDS011;13143;50.924;5.320;2024-03-29T00:54:34;8.43;;;1.33;;
25191;SDS011;13143;50.924;5.320;2024-03-29T00:56:59;5.60;;;1.00;;
25191;SDS011;13143;50.924;5.320;2024-03-29T00:59:25;2.60;;;0.93;;
25191;SDS011;13143;50.924;5.320;2024-03-29T01:01:51;1.30;;;0.70;;
25191;SDS011;13143;50.924;5.320;2024-03-29T01:04:18;2.17;;;0.70;;
25191;SDS011;13143;50.924;5.320;2024-03-29T01:06:44;6.68;;;1.02;;
25191;SDS011;13143;50.924;5.320;2024-03-29T01:09:10;4.60;;;1.00;;
25191;SDS011;13143;50.924;5.320;2024-03-29T01:11:39;3.67;;;0.90;;
25191;SDS011;13143;50.924;5.320;2024-03-29T01:14:06;3.50;;;1.20;;
25191;SDS011;13143;50.924;5.320;2024-03-29T01:16:32;5.55;;;1.10;;
25191;SDS011;13143;50.924;5.320;2024-03-29T01:18:59;8.55;;;1.33;;
25191;SDS011;13143;50.924;5.320;2024-03-29T01:21:28;3.40;;;1.00;;
25191;SDS011;13143;50.924;5.320;2024-03-29T01:23:54;3.58;;;1.02;;
25191;SDS011;13143;50.924;5.320;2024-03-29T01:26:20;5.15;;;1.20;;
25191;SDS011;13143;50.924;5.320;2024-03-29T01:28:46;3.35;;;1.05;;
25191;SDS011;13143;50.924;5.320;2024-03-29T01:31:12;4.22;;;1.10;;
25191;SDS011;13143;50.924;5.320;2024-03-29T01:33:38;4.53;;;1.20;;
25191;SDS011;13143;50.924;5.320;2024-03-29T01:36:09;4.90;;;0.90;;
25191;SDS011;13143;50.924;5.320;2024-03-29T01:38:35;3.13;;;0.90;;
25191;SDS011;13143;50.924;5.320;2024-03-29T01:41:01;4.85;;;0.80;;
25191;SDS011;13143;50.924;5.320;2024-03-29T01:43:27;2.20;;;0.70;;
25191;SDS011;13143;50.924;5.320;2024-03-29T01:45:54;5.88;;;0.90;;
25191;SDS011;13143;50.924;5.320;2024-03-29T01:48:24;3.08;;;0.98;;
25191;SDS011;13143;50.924;5.320;2024-03-29T01:50:52;3.25;;;0.82;;
25191;SDS011;13143;50.924;5.320;2024-03-29T01:53:21;1.15;;;0.70;;
25191;SDS011;13143;50.924;5.320;2024-03-29T01:55:47;5.13;;;1.00;;
25191;SDS011;13143;50.924;5.320;2024-03-29T01:58:13;4.90;;;0.80;;
25191;SDS011;13143;50.924;5.320;2024-03-29T02:00:58;5.30;;;0.90;;
25191;SDS011;13143;50.924;5.320;2024-03-29T02:03:25;2.53;;;1.00;;
25191;SDS011;13143;50.924;5.320;2024-03-29T02:05:52;7.07;;;1.08;;
25191;SDS011;13143;50.924;5.320;2024-03-29T02:08:18;2.90;;;0.80;;
25191;SDS011;13143;50.924;5.320;2024-03-29T02:10:47;2.28;;;0.80;;
25191;SDS011;13143;50.924;5.320;2024-03-29T02:13:14;3.25;;;0.70;;
25191;SDS011;13143;50.924;5.320;2024-03-29T02:15:40;4.72;;;1.10;;
25191;SDS011;13143;50.924;5.320;2024-03-29T02:18:06;2.80;;;0.77;;
25191;SDS011;13143;50.924;5.320;2024-03-29T02:20:33;1.75;;;0.80;;
25191;SDS011;13143;50.924;5.320;2024-03-29T02:23:11;5.80;;;0.65;;
25191;SDS011;13143;50.924;5.320;2024-03-29T02:25:43;6.68;;;0.95;;
25191;SDS011;13143;50.924;5.320;2024-03-29T02:28:09;4.95;;;0.77;;
25191;SDS011;13143;50.924;5.320;2024-03-29T02:30:35;4.63;;;0.80;;
25191;SDS011;13143;50.924;5.320;2024-03-29T02:33:01;5.88;;;0.95;;
25191;SDS011;13143;50.924;5.320;2024-03-29T02:35:28;2.35;;;0.68;;
25191;SDS011;13143;50.924;5.320;2024-03-29T02:37:55;3.58;;;1.38;;
25191;SDS011;13143;50.924;5.320;2024-03-29T02:40:21;4.97;;;1.35;;
25191;SDS011;13143;50.924;5.320;2024-03-29T02:42:47;2.75;;;0.80;;
25191;SDS011;13143;50.924;5.320;2024-03-29T02:45:15;6.63;;;1.27;;
25191;SDS011;13143;50.924;5.320;2024-03-29T02:47:41;3.90;;;0.98;;
25191;SDS011;13143;50.924;5.320;2024-03-29T02:50:09;3.00;;;0.52;;
25191;SDS011;13143;50.924;5.320;2024-03-29T02:52:36;7.95;;;1.52;;
25191;SDS011;13143;50.924;5.320;2024-03-29T02:55:02;6.32;;;1.08;;
25191;SDS011;13143;50.924;5.320;2024-03-29T02:57:28;3.25;;;0.88;;
25191;SDS011;13143;50.924;5.320;2024-03-29T02:59:54;4.63;;;0.80;;
25191;SDS011;13143;50.924;5.320;2024-03-29T03:02:20;2.58;;;0.73;;
25191;SDS011;13143;50.924;5.320;2024-03-29T03:04:46;3.90;;;1.25;;
25191;SDS011;13143;50.924;5.320;2024-03-29T03:07:13;2.33;;;0.85;;
25191;SDS011;13143;50.924;5.320;2024-03-29T03:09:57;2.55;;;0.88;;
25191;SDS011;13143;50.924;5.320;2024-03-29T03:12:42;3.75;;;0.98;;
25191;SDS011;13143;50.924;5.320;2024-03-29T03:15:08;5.88;;;0.80;;
25191;SDS011;13143;50.924;5.320;2024-03-29T03:17:34;1.55;;;0.65;;
25191;SDS011;13143;50.924;5.320;2024-03-29T03:20:00;5.03;;;1.02;;
25191;SDS011;13143;50.924;5.320;2024-03-29T03:22:26;5.70;;;0.88;;
25191;SDS011;13143;50.924;5.320;2024-03-29T03:24:52;3.00;;;0.82;;
25191;SDS011;13143;50.924;5.320;2024-03-29T03:27:18;5.85;;;1.17;;
25191;SDS011;13143;50.924;5.320;2024-03-29T03:29:44;4.70;;;0.95;;
25191;SDS011;13143;50.924;5.320;2024-03-29T03:32:10;4.85;;;1.17;;
25191;SDS011;13143;50.924;5.320;2024-03-29T03:34:36;2.97;;;0.80;;
25191;SDS011;13143;50.924;5.320;2024-03-29T03:37:03;4.55;;;0.90;;
25191;SDS011;13143;50.924;5.320;2024-03-29T03:39:29;3.00;;;1.17;;
25191;SDS011;13143;50.924;5.320;2024-03-29T03:41:54;4.35;;;1.55;;
25191;SDS011;13143;50.924;5.320;2024-03-29T03:44:20;4.97;;;0.98;;
25191;SDS011;13143;50.924;5.320;2024-03-29T03:46:49;3.83;;;1.00;;
25191;SDS011;13143;50.924;5.320;2024-03-29T03:49:15;4.45;;;0.70;;
25191;SDS011;13143;50.924;5.320;2024-03-29T03:51:41;3.92;;;0.93;;
25191;SDS011;13143;50.924;5.320;2024-03-29T03:54:07;6.43;;;1.02;;
25191;SDS011;13143;50.924;5.320;2024-03-29T03:56:33;6.38;;;0.80;;
25191;SDS011;13143;50.924;5.320;2024-03-29T03:58:59;5.75;;;1.10;;
25191;SDS011;13143;50.924;5.320;2024-03-29T04:01:25;3.25;;;0.63;;
25191;SDS011;13143;50.924;5.320;2024-03-29T04:03:51;5.28;;;1.10;;
25191;SDS011;13143;50.924;5.320;2024-03-29T04:06:17;3.92;;;1.10;;
25191;SDS011;13143;50.924;5.320;2024-03-29T04:08:44;4.15;;;1.08;;
25191;SDS011;13143;50.924;5.320;2024-03-29T04:11:10;3.38;;;1.10;;
25191;SDS011;13143;50.924;5.320;2024-03-29T04:13:36;5.80;;;1.58;;
25191;SDS011;13143;50.924;5.320;2024-03-29T04:16:04;4.63;;;0.85;;
25191;SDS011;13143;50.924;5.320;2024-03-29T04:18:31;3.58;;;1.25;;
25191;SDS011;13143;50.924;5.320;2024-03-29T04:20:58;4.40;;;1.25;;
25191;SDS011;13143;50.924;5.320;2024-03-29T04:23:25;3.30;;;0.90;;
25191;SDS011;13143;50.924;5.320;2024-03-29T04:25:55;4.80;;;1.13;;
25191;SDS011;13143;50.924;5.320;2024-03-29T04:28:22;7.68;;;1.17;;
25191;SDS011;13143;50.924;5.320;2024-03-29T04:33:22;3.43;;;0.80;;
25191;SDS011;13143;50.924;5.320;2024-03-29T04:35:58;6.05;;;1.23;;
25191;SDS011;13143;50.924;5.320;2024-03-29T04:38:26;9.50;;;1.80;;
25191;SDS011;13143;50.924;5.320;2024-03-29T04:40:53;4.15;;;1.23;;
25191;SDS011;13143;50.924;5.320;2024-03-29T04:43:29;6.20;;;1.10;;
25191;SDS011;13143;50.924;5.320;2024-03-29T04:46:07;3.42;;;1.10;;
25191;SDS011;13143;50.924;5.320;2024-03-29T04:48:37;4.75;;;1.23;;
25191;SDS011;13143;50.924;5.320;2024-03-29T04:51:04;5.13;;;1.20;;
25191;SDS011;13143;50.924;5.320;2024-03-29T04:53:30;7.53;;;1.63;;
25191;SDS011;13143;50.924;5.320;2024-03-29T04:55:57;6.40;;;1.48;;
25191;SDS011;13143;50.924;5.320;2024-03-29T04:58:24;6.82;;;1.17;;
25191;SDS011;13143;50.924;5.320;2024-03-29T05:00:50;3.80;;;1.27;;
25191;SDS011;13143;50.924;5.320;2024-03-29T05:03:17;3.53;;;1.10;;
25191;SDS011;13143;50.924;5.320;2024-03-29T05:05:44;6.55;;;1.25;;
25191;SDS011;13143;50.924;5.320;2024-03-29T05:08:11;6.13;;;0.82;;
25191;SDS011;13143;50.924;5.320;2024-03-29T05:10:37;4.65;;;1.08;;
25191;SDS011;13143;50.924;5.320;2024-03-29T05:13:04;2.72;;;0.90;;
25191;SDS011;13143;50.924;5.320;2024-03-29T05:15:31;6.95;;;1.10;;
25191;SDS011;13143;50.924;5.320;2024-03-29T05:17:57;4.97;;;1.55;;
25191;SDS011;13143;50.924;5.320;2024-03-29T05:20:23;4.43;;;0.85;;
25191;SDS011;13143;50.924;5.320;2024-03-29T05:22:49;4.35;;;1.10;;
25191;SDS011;13143;50.924;5.320;2024-03-29T05:25:15;5.18;;;1.42;;
25191;SDS011;13143;50.924;5.320;2024-03-29T05:27:42;4.40;;;1.20;;
25191;SDS011;13143;50.924;5.320;2024-03-29T05:30:08;5.25;;;1.33;;
25191;SDS011;13143;50.924;5.320;2024-03-29T05:32:38;4.82;;;1.23;;
25191;SDS011;13143;50.924;5.320;2024-03-29T05:35:05;7.47;;;1.17;;
25191;SDS011;13143;50.924;5.320;2024-03-29T05:37:31;3.72;;;1.15;;
25191;SDS011;13143;50.924;5.320;2024-03-29T05:39:57;7.63;;;1.05;;
25191;SDS011;13143;50.924;5.320;2024-03-29T05:42:30;3.42;;;1.20;;
25191;SDS011;13143;50.924;5.320;2024-03-29T05:44:57;5.05;;;1.08;;
25191;SDS011;13143;50.924;5.320;2024-03-29T05:47:23;4.95;;;1.20;;
25191;SDS011;13143;50.924;5.320;2024-03-29T05:49:49;5.75;;;1.10;;
25191;SDS011;13143;50.924;5.320;2024-03-29T05:52:16;4.72;;;1.23;;
25191;SDS011;13143;50.924;5.320;2024-03-29T05:54:43;6.75;;;1.65;;
25191;SDS011;13143;50.924;5.320;2024-03-29T05:57:09;5.88;;;1.35;;
25191;SDS011;13143;50.924;5.320;2024-03-29T05:59:36;4.95;;;1.20;;
25191;SDS011;13143;50.924;5.320;2024-03-29T06:02:03;4.53;;;1.10;;
25191;SDS011;13143;50.924;5.320;2024-03-29T06:04:29;5.38;;;1.60;;
25191;SDS011;13143;50.924;5.320;2024-03-29T06:06:59;4.47;;;1.13;;
25191;SDS011;13143;50.924;5.320;2024-03-29T06:09:25;7.68;;;1.65;;
25191;SDS011;13143;50.924;5.320;2024-03-29T06:11:53;5.55;;;1.50;;
25191;SDS011;13143;50.924;5.320;2024-03-29T06:14:25;6.55;;;1.17;;
25191;SDS011;13143;50.924;5.320;2024-03-29T06:17:10;2.25;;;1.20;;
25191;SDS011;13143;50.924;5.320;2024-03-29T06:19:48;6.00;;;1.40;;
25191;SDS011;13143;50.924;5.320;2024-03-29T06:22:21;3.47;;;1.38;;
25191;SDS011;13143;50.924;5.320;2024-03-29T06:24:51;4.70;;;1.60;;
25191;SDS011;13143;50.924;5.320;2024-03-29T06:27:17;2.97;;;1.15;;
25191;SDS011;13143;50.924;5.320;2024-03-29T06:29:46;6.10;;;1.30;;
25191;SDS011;13143;50.924;5.320;2024-03-29T06:32:12;6.10;;;1.60;;
25191;SDS011;13143;50.924;5.320;2024-03-29T06:34:39;6.28;;;1.95;;
25191;SDS011;13143;50.924;5.320;2024-03-29T06:37:05;3.55;;;1.85;;
25191;SDS011;13143;50.924;5.320;2024-03-29T06:39:30;5.88;;;1.80;;
25191;SDS011;13143;50.924;5.320;2024-03-29T06:41:56;6.38;;;1.90;;
25191;SDS011;13143;50.924;5.320;2024-03-29T06:44:22;5.18;;;1.90;;
25191;SDS011;13143;50.924;5.320;2024-03-29T06:46:48;6.53;;;2.00;;
25191;SDS011;13143;50.924;5.320;2024-03-29T06:49:14;5.25;;;1.95;;
25191;SDS011;13143;50.924;5.320;2024-03-29T06:51:41;8.48;;;2.17;;
25191;SDS011;13143;50.924;5.320;2024-03-29T06:54:08;5.15;;;1.75;;
25191;SDS011;13143;50.924;5.320;2024-03-29T06:56:34;9.57;;;2.05;;
25191;SDS011;13143;50.924;5.320;2024-03-29T06:59:00;5.95;;;1.98;;
25191;SDS011;13143;50.924;5.320;2024-03-29T07:01:26;4.55;;;1.50;;
25191;SDS011;13143;50.924;5.320;2024-03-29T07:03:53;6.85;;;1.90;;
25191;SDS011;13143;50.924;5.320;2024-03-29T07:06:19;5.60;;;2.03;;
25191;SDS011;13143;50.924;5.320;2024-03-29T07:08:45;4.05;;;1.45;;
25191;SDS011;13143;50.924;5.320;2024-03-29T07:11:12;5.22;;;1.65;;
25191;SDS011;13143;50.924;5.320;2024-03-29T07:13:38;5.20;;;1.70;;
25191;SDS011;13143;50.924;5.320;2024-03-29T07:16:04;6.18;;;1.90;;
25191;SDS011;13143;50.924;5.320;2024-03-29T07:18:32;5.97;;;1.90;;
25191;SDS011;13143;50.924;5.320;2024-03-29T07:20:58;3.92;;;1.50;;
25191;SDS011;13143;50.924;5.320;2024-03-29T07:23:24;5.40;;;1.67;;
25191;SDS011;13143;50.924;5.320;2024-03-29T07:25:57;5.43;;;1.58;;
25191;SDS011;13143;50.924;5.320;2024-03-29T07:28:25;5.18;;;1.70;;
25191;SDS011;13143;50.924;5.320;2024-03-29T07:30:51;4.35;;;1.88;;
25191;SDS011;13143;50.924;5.320;2024-03-29T07:33:19;5.35;;;1.85;;
25191;SDS011;13143;50.924;5.320;2024-03-29T07:35:54;6.82;;;2.00;;
25191;SDS011;13143;50.924;5.320;2024-03-29T07:38:21;8.75;;;1.88;;
25191;SDS011;13143;50.924;5.320;2024-03-29T07:40:49;8.98;;;1.75;;
25191;SDS011;13143;50.924;5.320;2024-03-29T07:43:15;8.90;;;2.65;;
25191;SDS011;13143;50.924;5.320;2024-03-29T07:45:42;3.60;;;1.73;;
25191;SDS011;13143;50.924;5.320;2024-03-29T07:48:11;5.93;;;1.95;;
25191;SDS011;13143;50.924;5.320;2024-03-29T07:50:39;4.75;;;1.60;;
25191;SDS011;13143;50.924;5.320;2024-03-29T07:53:06;3.90;;;1.70;;
25191;SDS011;13143;50.924;5.320;2024-03-29T07:55:32;5.93;;;1.88;;
25191;SDS011;13143;50.924;5.320;2024-03-29T07:57:59;10.98;;;2.55;;
25191;SDS011;13143;50.924;5.320;2024-03-29T08:00:25;7.50;;;1.95;;
25191;SDS011;13143;50.924;5.320;2024-03-29T08:02:52;4.72;;;2.10;;
25191;SDS011;13143;50.924;5.320;2024-03-29T08:05:22;4.35;;;2.08;;
25191;SDS011;13143;50.924;5.320;2024-03-29T08:07:48;6.32;;;2.03;;
25191;SDS011;13143;50.924;5.320;2024-03-29T08:10:14;7.75;;;1.90;;
25191;SDS011;13143;50.924;5.320;2024-03-29T08:12:40;2.95;;;1.75;;
25191;SDS011;13143;50.924;5.320;2024-03-29T08:15:06;6.40;;;1.75;;
25191;SDS011;13143;50.924;5.320;2024-03-29T08:17:33;6.20;;;2.08;;
25191;SDS011;13143;50.924;5.320;2024-03-29T08:19:59;4.95;;;2.10;;
25191;SDS011;13143;50.924;5.320;2024-03-29T08:22:25;11.77;;;2.08;;
25191;SDS011;13143;50.924;5.320;2024-03-29T08:24:54;8.13;;;2.20;;
25191;SDS011;13143;50.924;5.320;2024-03-29T08:27:21;3.85;;;1.85;;
25191;SDS011;13143;50.924;5.320;2024-03-29T08:29:47;5.90;;;1.90;;
25191;SDS011;13143;50.924;5.320;2024-03-29T08:32:14;4.05;;;2.00;;
25191;SDS011;13143;50.924;5.320;2024-03-29T08:34:40;3.95;;;1.92;;
25191;SDS011;13143;50.924;5.320;2024-03-29T08:37:06;6.55;;;1.92;;
25191;SDS011;13143;50.924;5.320;2024-03-29T08:39:33;5.40;;;1.67;;
25191;SDS011;13143;50.924;5.320;2024-03-29T08:41:59;5.30;;;1.80;;
25191;SDS011;13143;50.924;5.320;2024-03-29T08:44:33;4.43;;;1.67;;
25191;SDS011;13143;50.924;5.320;2024-03-29T08:46:59;2.90;;;1.70;;
25191;SDS011;13143;50.924;5.320;2024-03-29T08:49:28;3.25;;;1.30;;
25191;SDS011;13143;50.924;5.320;2024-03-29T08:51:55;2.72;;;1.50;;
25191;SDS011;13143;50.924;5.320;2024-03-29T08:54:24;3.28;;;1.33;;
25191;SDS011;13143;50.924;5.320;2024-03-29T08:56:50;4.10;;;1.73;;
25191;SDS011;13143;50.924;5.320;2024-03-29T08:59:16;4.43;;;1.92;;
25191;SDS011;13143;50.924;5.320;2024-03-29T09:01:46;3.47;;;1.73;;
25191;SDS011;13143;50.924;5.320;2024-03-29T09:04:15;4.90;;;1.80;;
25191;SDS011;13143;50.924;5.320;2024-03-29T09:06:41;3.65;;;1.70;;
25191;SDS011;13143;50.924;5.320;2024-03-29T09:09:08;3.50;;;1.80;;
25191;SDS011;13143;50.924;5.320;2024-03-29T09:11:34;4.00;;;1.60;;
25191;SDS011;13143;50.924;5.320;2024-03-29T09:14:00;4.28;;;1.58;;
25191;SDS011;13143;50.924;5.320;2024-03-29T09:16:27;3.22;;;1.52;;
25191;SDS011;13143;50.924;5.320;2024-03-29T09:18:56;3.70;;;1.60;;
25191;SDS011;13143;50.924;5.320;2024-03-29T09:21:23;4.75;;;1.60;;
25191;SDS011;13143;50.924;5.320;2024-03-29T09:23:49;5.70;;;2.00;;
25191;SDS011;13143;50.924;5.320;2024-03-29T09:26:18;3.60;;;1.45;;
25191;SDS011;13143;50.924;5.320;2024-03-29T09:28:44;2.63;;;1.30;;
25191;SDS011;13143;50.924;5.320;2024-03-29T09:31:10;3.47;;;1.50;;
25191;SDS011;13143;50.924;5.320;2024-03-29T09:33:36;1.88;;;1.50;;
25191;SDS011;13143;50.924;5.320;2024-03-29T09:36:03;4.60;;;1.42;;
25191;SDS011;13143;50.924;5.320;2024-03-29T09:38:29;6.38;;;1.75;;
25191;SDS011;13143;50.924;5.320;2024-03-29T09:41:10;5.47;;;1.60;;
25191;SDS011;13143;50.924;5.320;2024-03-29T09:43:43;5.20;;;1.55;;
25191;SDS011;13143;50.924;5.320;2024-03-29T09:46:13;4.40;;;1.80;;
25191;SDS011;13143;50.924;5.320;2024-03-29T09:48:40;3.25;;;1.60;;
25191;SDS011;13143;50.924;5.320;2024-03-29T09:51:08;3.47;;;1.55;;
25191;SDS011;13143;50.924;5.320;2024-03-29T09:53:37;3.15;;;1.35;;
25191;SDS011;13143;50.924;5.320;2024-03-29T09:56:04;2.58;;;1.38;;
25191;SDS011;13143;50.924;5.320;2024-03-29T09:58:31;5.95;;;1.65;;
25191;SDS011;13143;50.924;5.320;2024-03-29T10:00:57;8.15;;;1.80;;
25191;SDS011;13143;50.924;5.320;2024-03-29T10:03:24;5.25;;;1.50;;
25191;SDS011;13143;50.924;5.320;2024-03-29T10:05:58;6.50;;;1.55;;
25191;SDS011;13143;50.924;5.320;2024-03-29T10:08:30;6.03;;;1.40;;
25191;SDS011;13143;50.924;5.320;2024-03-29T10:10:57;3.70;;;1.60;;
25191;SDS011;13143;50.924;5.320;2024-03-29T10:13:23;4.05;;;1.50;;
25191;SDS011;13143;50.924;5.320;2024-03-29T10:15:54;3.58;;;1.42;;
25191;SDS011;13143;50.924;5.320;2024-03-29T10:18:25;3.72;;;1.40;;
25191;SDS011;13143;50.924;5.320;2024-03-29T10:21:02;6.78;;;1.83;;
25191;SDS011;13143;50.924;5.320;2024-03-29T10:23:30;4.28;;;1.67;;
25191;SDS011;13143;50.924;5.320;2024-03-29T10:25:57;5.05;;;2.00;;
25191;SDS011;13143;50.924;5.320;2024-03-29T10:28:23;3.50;;;1.30;;
25191;SDS011;13143;50.924;5.320;2024-03-29T10:30:55;5.63;;;1.58;;
25191;SDS011;13143;50.924;5.320;2024-03-29T10:33:21;5.43;;;1.25;;
25191;SDS011;13143;50.924;5.320;2024-03-29T10:35:47;5.22;;;1.20;;
25191;SDS011;13143;50.924;5.320;2024-03-29T10:38:13;2.78;;;1.17;;
25191;SDS011;13143;50.924;5.320;2024-03-29T10:40:39;2.38;;;1.35;;
25191;SDS011;13143;50.924;5.320;2024-03-29T10:43:10;2.70;;;1.05;;
25191;SDS011;13143;50.924;5.320;2024-03-29T10:45:42;2.90;;;1.30;;
25191;SDS011;13143;50.924;5.320;2024-03-29T10:48:09;5.00;;;1.20;;
25191;SDS011;13143;50.924;5.320;2024-03-29T10:50:35;1.58;;;0.90;;
25191;SDS011;13143;50.924;5.320;2024-03-29T10:53:02;6.85;;;1.30;;
25191;SDS011;13143;50.924;5.320;2024-03-29T10:55:29;4.05;;;1.00;;
25191;SDS011;13143;50.924;5.320;2024-03-29T10:57:58;4.10;;;1.15;;
25191;SDS011;13143;50.924;5.320;2024-03-29T11:00:25;4.20;;;1.10;;
25191;SDS011;13143;50.924;5.320;2024-03-29T11:03:02;2.28;;;0.90;;
25191;SDS011;13143;50.924;5.320;2024-03-29T11:05:32;1.58;;;1.00;;
25191;SDS011;13143;50.924;5.320;2024-03-29T11:08:01;2.05;;;1.10;;
25191;SDS011;13143;50.924;5.320;2024-03-29T11:15:56;2.90;;;1.02;;
25191;SDS011;13143;50.924;5.320;2024-03-29T11:18:25;6.15;;;1.13;;
25191;SDS011;13143;50.924;5.320;2024-03-29T11:20:53;3.67;;;0.77;;
25191;SDS011;13143;50.924;5.320;2024-03-29T11:23:21;2.88;;;0.75;;
25191;SDS011;13143;50.924;5.320;2024-03-29T11:25:49;2.70;;;0.88;;
25191;SDS011;13143;50.924;5.320;2024-03-29T11:28:24;3.88;;;0.95;;
25191;SDS011;13143;50.924;5.320;2024-03-29T11:30:52;2.45;;;1.05;;
25191;SDS011;13143;50.924;5.320;2024-03-29T11:35:59;3.90;;;0.75;;
25191;SDS011;13143;50.924;5.320;2024-03-29T11:38:33;1.48;;;0.80;;
25191;SDS011;13143;50.924;5.320;2024-03-29T11:41:01;3.13;;;0.68;;
25191;SDS011;13143;50.924;5.320;2024-03-29T11:43:33;4.95;;;1.10;;
25191;SDS011;13143;50.924;5.320;2024-03-29T11:46:01;5.20;;;0.98;;
25191;SDS011;13143;50.924;5.320;2024-03-29T11:48:29;3.10;;;1.10;;
25191;SDS011;13143;50.924;5.320;2024-03-29T11:50:59;4.10;;;0.98;;
25191;SDS011;13143;50.924;5.320;2024-03-29T11:53:26;3.47;;;1.10;;
25191;SDS011;13143;50.924;5.320;2024-03-29T11:55:59;3.83;;;1.10;;
25191;SDS011;13143;50.924;5.320;2024-03-29T11:58:26;8.00;;;1.08;;
25191;SDS011;13143;50.924;5.320;2024-03-29T12:00:54;7.53;;;1.08;;
25191;SDS011;13143;50.924;5.320;2024-03-29T12:03:22;2.45;;;0.95;;
25191;SDS011;13143;50.924;5.320;2024-03-29T12:05:50;3.50;;;0.90;;
25191;SDS011;13143;50.924;5.320;2024-03-29T12:08:19;4.68;;;0.90;;
25191;SDS011;13143;50.924;5.320;2024-03-29T12:10:46;5.03;;;1.05;;
25191;SDS011;13143;50.924;5.320;2024-03-29T12:13:15;5.38;;;0.88;;
25191;SDS011;13143;50.924;5.320;2024-03-29T12:15:41;3.45;;;1.20;;
25191;SDS011;13143;50.924;5.320;2024-03-29T12:18:08;2.88;;;1.02;;
25191;SDS011;13143;50.924;5.320;2024-03-29T12:20:34;3.80;;;1.10;;
25191;SDS011;13143;50.924;5.320;2024-03-29T12:23:02;2.97;;;1.25;;
25191;SDS011;13143;50.924;5.320;2024-03-29T12:25:33;3.05;;;1.10;;
25191;SDS011;13143;50.924;5.320;2024-03-29T12:28:00;2.58;;;1.05;;
25191;SDS011;13143;50.924;5.320;2024-03-29T12:30:26;3.00;;;1.48;;
25191;SDS011;13143;50.924;5.320;2024-03-29T12:33:04;4.03;;;1.35;;
25191;SDS011;13143;50.924;5.320;2024-03-29T12:35:32;1.65;;;1.10;;
25191;SDS011;13143;50.924;5.320;2024-03-29T12:38:00;2.22;;;1.10;;
25191;SDS011;13143;50.924;5.320;2024-03-29T12:40:29;4.43;;;1.00;;
25191;SDS011;13143;50.924;5.320;2024-03-29T12:43:02;3.83;;;1.20;;
25191;SDS011;13143;50.924;5.320;2024-03-29T12:45:35;3.03;;;1.13;;
25191;SDS011;13143;50.924;5.320;2024-03-29T12:48:02;5.70;;;1.42;;
25191;SDS011;13143;50.924;5.320;2024-03-29T12:50:34;1.83;;;1.10;;
25191;SDS011;13143;50.924;5.320;2024-03-29T12:53:05;4.30;;;1.05;;
25191;SDS011;13143;50.924;5.320;2024-03-29T12:55:33;2.42;;;1.17;;
25191;SDS011;13143;50.924;5.320;2024-03-29T12:58:05;1.95;;;0.80;;
25191;SDS011;13143;50.924;5.320;2024-03-29T13:00:38;4.57;;;0.90;;
25191;SDS011;13143;50.924;5.320;2024-03-29T13:03:05;4.53;;;0.95;;
25191;SDS011;13143;50.924;5.320;2024-03-29T13:05:32;1.48;;;1.08;;
25191;SDS011;13143;50.924;5.320;2024-03-29T13:08:04;2.10;;;0.85;;
25191;SDS011;13143;50.924;5.320;2024-03-29T13:10:31;3.83;;;1.05;;
25191;SDS011;13143;50.924;5.320;2024-03-29T13:12:57;2.47;;;0.90;;
25191;SDS011;13143;50.924;5.320;2024-03-29T13:15:23;1.48;;;0.68;;
25191;SDS011;13143;50.924;5.320;2024-03-29T13:17:51;1.77;;;0.70;;
25191;SDS011;13143;50.924;5.320;2024-03-29T13:20:18;3.85;;;1.20;;
25191;SDS011;13143;50.924;5.320;2024-03-29T13:22:45;1.75;;;0.98;;
25191;SDS011;13143;50.924;5.320;2024-03-29T13:25:14;3.53;;;1.08;;
25191;SDS011;13143;50.924;5.320;2024-03-29T13:27:48;1.30;;;0.95;;
25191;SDS011;13143;50.924;5.320;2024-03-29T13:30:19;2.80;;;0.80;;
25191;SDS011;13143;50.924;5.320;2024-03-29T13:32:50;1.35;;;0.70;;
25191;SDS011;13143;50.924;5.320;2024-03-29T13:35:16;2.05;;;0.60;;
25191;SDS011;13143;50.924;5.320;2024-03-29T13:37:47;1.80;;;0.80;;
25191;SDS011;13143;50.924;5.320;2024-03-29T13:40:18;1.92;;;0.90;;
25191;SDS011;13143;50.924;5.320;2024-03-29T13:42:46;2.97;;;0.93;;
25191;SDS011;13143;50.924;5.320;2024-03-29T13:45:14;1.33;;;0.90;;
25191;SDS011;13143;50.924;5.320;2024-03-29T13:47:41;2.95;;;0.70;;
25191;SDS011;13143;50.924;5.320;2024-03-29T13:50:08;2.72;;;0.50;;
25191;SDS011;13143;50.924;5.320;2024-03-29T13:52:35;3.25;;;0.82;;
25191;SDS011;13143;50.924;5.320;2024-03-29T13:55:02;5.38;;;0.80;;
25191;SDS011;13143;50.924;5.320;2024-03-29T13:57:30;2.38;;;0.90;;
25191;SDS011;13143;50.924;5.320;2024-03-29T13:59:56;2.58;;;0.80;;
25191;SDS011;13143;50.924;5.320;2024-03-29T14:02:24;1.23;;;0.80;;
25191;SDS011;13143;50.924;5.320;2024-03-29T14:04:53;1.27;;;0.70;;
25191;SDS011;13143;50.924;5.320;2024-03-29T14:07:19;3.20;;;0.70;;
25191;SDS011;13143;50.924;5.320;2024-03-29T14:09:45;6.03;;;1.10;;
25191;SDS011;13143;50.924;5.320;2024-03-29T14:12:12;1.55;;;0.73;;
25191;SDS011;13143;50.924;5.320;2024-03-29T14:14:39;5.07;;;0.80;;
25191;SDS011;13143;50.924;5.320;2024-03-29T14:17:07;3.97;;;1.10;;
25191;SDS011;13143;50.924;5.320;2024-03-29T14:19:35;4.20;;;0.88;;
25191;SDS011;13143;50.924;5.320;2024-03-29T14:22:05;1.90;;;0.88;;
25191;SDS011;13143;50.924;5.320;2024-03-29T14:24:32;1.52;;;0.85;;
25191;SDS011;13143;50.924;5.320;2024-03-29T14:27:02;2.50;;;0.85;;
25191;SDS011;13143;50.924;5.320;2024-03-29T14:29:29;2.13;;;0.88;;
25191;SDS011;13143;50.924;5.320;2024-03-29T14:31:59;0.85;;;0.55;;
25191;SDS011;13143;50.924;5.320;2024-03-29T14:34:26;2.42;;;1.08;;
25191;SDS011;13143;50.924;5.320;2024-03-29T14:36:53;1.45;;;0.88;;
25191;SDS011;13143;50.924;5.320;2024-03-29T14:39:19;3.13;;;0.90;;
25191;SDS011;13143;50.924;5.320;2024-03-29T14:41:47;3.88;;;1.30;;
25191;SDS011;13143;50.924;5.320;2024-03-29T14:44:15;1.55;;;0.80;;
25191;SDS011;13143;50.924;5.320;2024-03-29T14:46:43;2.83;;;0.80;;
25191;SDS011;13143;50.924;5.320;2024-03-29T14:49:12;2.13;;;0.98;;
25191;SDS011;13143;50.924;5.320;2024-03-29T14:51:39;2.03;;;0.88;;
25191;SDS011;13143;50.924;5.320;2024-03-29T14:54:06;0.93;;;0.80;;
25191;SDS011;13143;50.924;5.320;2024-03-29T14:56:33;1.33;;;0.90;;
25191;SDS011;13143;50.924;5.320;2024-03-29T14:59:00;1.17;;;1.00;;
25191;SDS011;13143;50.924;5.320;2024-03-29T15:01:28;3.65;;;1.00;;